createdAt,value
2018-11-21T00:01:46.423Z,310.17
2018-11-21T00:04:15.417Z,305.50
2018-11-21T00:06:44.496Z,306.27
2018-11-21T00:09:13.504Z,292.40
2018-11-21T00:11:42.488Z,297.47
2018-11-21T00:14:11.505Z,311.07
2018-11-21T00:16:40.524Z,303.67
2018-11-21T00:19:09.482Z,314.80
2018-11-21T00:21:38.479Z,318.73
2018-11-21T00:24:07.466Z,297.77
2018-11-21T00:26:36.451Z,293.03
2018-11-21T00:29:05.555Z,295.93
2018-11-21T00:31:34.640Z,303.27
2018-11-21T00:34:03.753Z,310.50
2018-11-21T00:36:32.792Z,311.03
2018-11-21T00:39:01.813Z,308.07
2018-11-21T00:41:30.799Z,302.23
2018-11-21T00:43:59.752Z,307.20
2018-11-21T00:46:28.981Z,315.43
2018-11-21T00:48:57.913Z,313.63
2018-11-21T00:51:26.994Z,285.40
2018-11-21T00:53:55.936Z,322.60
2018-11-21T00:56:24.951Z,299.60
2018-11-21T00:58:53.930Z,298.43
2018-11-21T01:01:22.932Z,300.93
2018-11-21T01:03:51.882Z,299.57
2018-11-21T01:06:20.895Z,315.60
2018-11-21T01:08:49.903Z,308.60
2018-11-21T01:11:18.952Z,308.70
2018-11-21T01:13:47.946Z,291.93
2018-11-21T01:16:16.932Z,310.30
2018-11-21T01:18:45.951Z,308.53
2018-11-21T01:21:14.888Z,299.70
2018-11-21T01:23:43.864Z,292.47
2018-11-21T01:26:13.697Z,315.47
2018-11-21T01:28:42.822Z,315.80
2018-11-21T01:31:11.824Z,313.23
2018-11-21T01:33:40.829Z,296.30
2018-11-21T01:36:09.765Z,314.30
2018-11-21T01:38:38.751Z,292.73
2018-11-21T01:41:07.749Z,299.70
2018-11-21T01:43:36.748Z,312.10
2018-11-21T01:46:07.555Z,289.40
2018-11-21T01:48:34.741Z,302.23
2018-11-21T01:51:03.713Z,294.30
2018-11-21T01:53:32.708Z,291.97
2018-11-21T01:56:01.662Z,302.63
2018-11-21T01:58:30.927Z,292.17
2018-11-21T02:00:59.887Z,304.80
2018-11-21T02:03:28.993Z,289.00
2018-11-21T02:05:57.968Z,282.83
2018-11-21T02:08:26.991Z,296.13
2018-11-21T02:10:56.160Z,285.27
2018-11-21T02:13:25.274Z,286.60
2018-11-21T02:15:54.223Z,276.17
2018-11-21T02:18:23.292Z,283.50
2018-11-21T02:20:52.259Z,276.67
2018-11-21T02:23:21.248Z,261.87
2018-11-21T02:25:50.450Z,264.67
2018-11-21T02:28:19.446Z,290.20
2018-11-21T02:30:48.499Z,286.33
2018-11-21T02:33:17.431Z,271.57
2018-11-21T02:35:46.467Z,263.97
2018-11-21T02:38:15.401Z,277.23
2018-11-21T02:40:44.414Z,270.83
2018-11-21T02:43:13.390Z,269.27
2018-11-21T02:45:42.372Z,260.57
2018-11-21T02:48:11.347Z,273.50
2018-11-21T02:50:40.367Z,266.33
2018-11-21T02:53:09.350Z,266.90
2018-11-21T02:55:38.356Z,245.60
2018-11-21T02:58:07.401Z,275.50
2018-11-21T03:00:36.669Z,245.70
2018-11-21T03:03:05.696Z,256.07
2018-11-21T03:05:34.641Z,241.63
2018-11-21T03:08:03.637Z,244.87
2018-11-21T03:10:32.653Z,250.00
2018-11-21T03:13:01.627Z,249.73
2018-11-21T03:15:30.699Z,228.20
2018-11-21T03:17:59.718Z,246.90
2018-11-21T03:20:28.660Z,231.37
2018-11-21T03:22:57.654Z,239.67
2018-11-21T03:25:26.615Z,244.47
2018-11-21T03:27:55.651Z,220.53
2018-11-21T03:30:24.696Z,227.73
2018-11-21T03:32:53.670Z,220.87
2018-11-21T03:35:22.667Z,236.97
2018-11-21T03:37:51.617Z,217.93
2018-11-21T03:40:20.696Z,238.83
2018-11-21T03:42:49.718Z,245.47
2018-11-21T03:45:20.943Z,216.53
2018-11-21T03:47:49.882Z,238.97
2018-11-21T03:50:18.849Z,235.93
2018-11-21T03:52:47.860Z,237.37
2018-11-21T03:55:16.805Z,225.43
2018-11-21T03:57:45.830Z,229.13
2018-11-21T04:00:14.821Z,237.53
2018-11-21T04:02:43.866Z,223.37
2018-11-21T04:05:15.389Z,217.40
2018-11-21T04:07:41.840Z,226.17
2018-11-21T04:10:12.822Z,231.87
2018-11-21T04:12:41.836Z,210.10
2018-11-21T04:15:12.702Z,241.20
2018-11-21T04:17:41.634Z,227.53
2018-11-21T04:20:10.944Z,237.47
2018-11-21T04:22:39.963Z,224.63
2018-11-21T04:25:10.461Z,231.47
2018-11-21T04:27:39.658Z,222.03
2018-11-21T04:30:10.417Z,224.63
2018-11-21T04:32:39.397Z,232.23
2018-11-21T04:35:09.124Z,237.43
2018-11-21T04:37:38.202Z,216.67
2018-11-21T04:40:07.716Z,208.23
2018-11-21T04:42:37.063Z,222.10
2018-11-21T04:45:07.653Z,220.90
2018-11-21T04:47:36.683Z,226.47
2018-11-21T04:50:06.559Z,210.63
2018-11-21T04:52:35.559Z,221.00
2018-11-21T04:55:05.249Z,212.13
2018-11-21T04:57:34.228Z,198.73
2018-11-21T05:00:03.248Z,216.20
2018-11-21T05:02:34.823Z,230.33
2018-11-21T05:05:01.244Z,221.03
2018-11-21T05:07:30.236Z,235.53
2018-11-21T05:09:59.187Z,222.53
2018-11-21T05:12:28.207Z,214.20
2018-11-21T05:14:57.171Z,199.47
2018-11-21T05:17:26.159Z,240.47
2018-11-21T05:19:55.169Z,218.70
2018-11-21T05:22:24.199Z,217.20
2018-11-21T05:24:53.407Z,240.47
2018-11-21T05:27:22.381Z,212.30
2018-11-21T05:29:51.385Z,220.97
2018-11-21T05:32:20.555Z,217.20
2018-11-21T05:34:49.521Z,219.33
2018-11-21T05:37:18.474Z,203.60
2018-11-21T05:39:47.461Z,206.63
2018-11-21T05:42:16.695Z,236.90
2018-11-21T05:44:45.654Z,197.80
2018-11-21T05:47:15.741Z,199.47
2018-11-21T05:49:44.375Z,206.93
2018-11-21T05:52:13.321Z,200.30
2018-11-21T05:54:42.375Z,199.43
2018-11-21T05:57:11.313Z,231.43
2018-11-21T05:59:40.297Z,214.80
2018-11-21T06:02:09.275Z,249.17
2018-11-21T06:04:40.352Z,206.83
2018-11-21T06:07:07.416Z,229.43
2018-11-21T06:09:36.398Z,207.83
2018-11-21T06:12:05.740Z,208.20
2018-11-21T06:14:35.648Z,216.87
2018-11-21T06:17:04.945Z,208.43
2018-11-21T06:19:33.962Z,218.77
2018-11-21T06:22:03.010Z,205.37
2018-11-21T06:24:32.007Z,204.10
2018-11-21T06:27:02.467Z,211.00
2018-11-21T06:29:31.450Z,206.73
2018-11-21T06:32:00.440Z,200.33
2018-11-21T06:34:32.937Z,210.87
2018-11-21T06:36:58.503Z,230.67
2018-11-21T06:39:27.485Z,213.10
2018-11-21T06:41:56.469Z,193.43
2018-11-21T06:44:25.424Z,211.97
2018-11-21T06:46:54.410Z,213.07
2018-11-21T06:49:23.371Z,232.73
2018-11-21T06:51:52.351Z,201.80
2018-11-21T06:54:21.292Z,202.50
2018-11-21T06:56:50.291Z,205.30
2018-11-21T06:59:19.260Z,197.80
2018-11-21T07:01:48.254Z,209.83
2018-11-21T07:04:17.246Z,199.13
2018-11-21T07:06:46.262Z,191.57
2018-11-21T07:09:15.216Z,199.43
2018-11-21T07:11:44.177Z,216.67
2018-11-21T07:14:13.207Z,206.50
2018-11-21T07:16:42.573Z,202.43
2018-11-21T07:19:11.508Z,188.23
2018-11-21T07:21:40.513Z,197.93
2018-11-21T07:24:09.485Z,210.90
2018-11-21T07:26:38.535Z,201.67
2018-11-21T07:29:07.778Z,225.30
2018-11-21T07:31:36.874Z,210.80
2018-11-21T07:34:06.118Z,210.37
2018-11-21T07:36:35.128Z,210.47
2018-11-21T07:39:05.191Z,206.87
2018-11-21T07:41:34.143Z,205.87
2018-11-21T07:44:03.083Z,198.13
2018-11-21T07:46:32.127Z,192.33
2018-11-21T07:49:01.071Z,206.67
2018-11-21T07:51:30.079Z,206.33
2018-11-21T07:53:59.081Z,210.17
2018-11-21T07:57:18.921Z,199.33
2018-11-21T08:00:45.452Z,198.23
2018-11-21T08:03:15.077Z,198.93
2018-11-21T08:05:46.529Z,207.13
2018-11-21T08:08:33.420Z,202.40
2018-11-21T08:11:27.478Z,215.20
2018-11-21T08:14:14.111Z,195.97
2018-11-21T08:17:02.282Z,212.17
2018-11-21T08:19:59.356Z,203.40
2018-11-21T08:22:50.522Z,218.90
2018-11-21T08:25:50.945Z,197.83
2018-11-21T08:28:26.975Z,214.73
2018-11-21T08:30:56.122Z,204.17
2018-11-21T08:33:25.170Z,220.47
2018-11-21T08:35:54.114Z,202.10
2018-11-21T08:38:23.085Z,194.17
2018-11-21T08:40:52.097Z,212.80
2018-11-21T08:43:21.102Z,220.43
2018-11-21T08:45:50.134Z,194.10
2018-11-21T08:48:22.741Z,222.37
2018-11-21T08:50:49.120Z,242.80
2018-11-21T08:53:18.291Z,226.43
2018-11-21T08:55:47.284Z,241.13
2018-11-21T08:58:19.282Z,234.37
2018-11-21T09:00:49.017Z,219.17
2018-11-21T09:03:18.004Z,224.20
2018-11-21T09:05:47.003Z,238.73
2018-11-21T09:08:15.960Z,231.17
2018-11-21T09:10:44.965Z,239.43
2018-11-21T09:13:13.934Z,241.40
2018-11-21T09:15:42.933Z,245.03
2018-11-21T09:18:12.046Z,245.00
2018-11-21T09:20:40.997Z,260.73
2018-11-21T09:23:10.151Z,236.27
2018-11-21T09:25:39.096Z,232.47
2018-11-21T09:28:08.085Z,257.50
2018-11-21T09:30:37.050Z,266.90
2018-11-21T09:33:06.144Z,255.40
2018-11-21T09:35:35.176Z,263.97
2018-11-21T09:38:04.120Z,269.80
2018-11-21T09:40:33.149Z,283.17
2018-11-21T09:43:02.082Z,293.13
2018-11-21T09:45:31.069Z,287.43
2018-11-21T09:48:00.048Z,285.70
2018-11-21T09:50:30.580Z,286.20
2018-11-21T09:52:59.583Z,280.53
2018-11-21T09:55:28.533Z,288.27
2018-11-21T09:57:59.239Z,288.37
2018-11-21T10:01:19.251Z,299.23
2018-11-21T10:03:48.272Z,239.27
2018-11-21T10:06:19.889Z,267.73
2018-11-21T10:09:08.041Z,277.40
2018-11-21T10:11:37.608Z,238.60
2018-11-21T10:14:07.003Z,291.80
2018-11-21T10:16:36.079Z,305.80
2018-11-21T10:19:05.482Z,306.13
2018-11-21T10:21:35.553Z,295.60
2018-11-21T10:24:06.275Z,324.93
2018-11-21T10:26:33.537Z,296.40
2018-11-21T10:29:02.526Z,296.27
2018-11-21T10:31:31.547Z,309.17
2018-11-21T10:34:00.514Z,307.97
2018-11-21T10:36:29.540Z,314.17
2018-11-21T10:38:58.684Z,328.83
2018-11-21T10:41:27.698Z,328.17
2018-11-21T10:43:56.668Z,300.17
2018-11-21T10:46:25.674Z,301.93
2018-11-21T10:48:56.694Z,317.10
2018-11-21T10:51:23.835Z,306.53
2018-11-21T10:53:53.054Z,330.30
2018-11-21T10:56:24.369Z,300.27
2018-11-21T10:58:50.950Z,302.70
2018-11-21T11:01:24.465Z,322.63
2018-11-21T11:03:56.260Z,296.17
2018-11-21T11:07:02.731Z,304.13
2018-11-21T11:10:05.979Z,253.73
2018-11-21T11:12:56.609Z,270.63
2018-11-21T11:15:43.296Z,262.53
2018-11-21T11:18:43.580Z,280.70
2018-11-21T11:21:30.505Z,261.70
2018-11-21T11:24:17.521Z,281.73
2018-11-21T11:27:06.896Z,272.67
2018-11-21T11:29:55.833Z,265.00
2018-11-21T11:32:43.991Z,264.97
2018-11-21T11:35:50.267Z,236.17
2018-11-21T11:38:36.986Z,249.47
2018-11-21T11:41:39.623Z,248.47
2018-11-21T11:44:28.039Z,234.73
2018-11-21T11:47:15.026Z,256.23
2018-11-21T11:50:03.117Z,271.27
2018-11-21T11:52:51.261Z,252.13
2018-11-21T11:55:38.000Z,278.60
2018-11-21T11:58:26.134Z,253.80
2018-11-21T12:01:13.168Z,278.50
2018-11-21T12:04:03.135Z,258.87
2018-11-21T12:06:49.754Z,272.20
2018-11-21T12:09:36.479Z,267.13
2018-11-21T12:12:39.995Z,276.00
2018-11-21T12:15:27.911Z,282.57
2018-11-21T12:18:05.978Z,237.87
2018-11-21T12:20:52.844Z,271.93
2018-11-21T12:23:40.993Z,257.27
2018-11-21T12:26:30.418Z,262.50
2018-11-21T12:29:18.526Z,257.23
2018-11-21T12:32:05.191Z,263.90
2018-11-21T12:34:53.319Z,257.13
2018-11-21T12:37:44.337Z,242.17
2018-11-21T12:40:26.379Z,260.53
2018-11-21T12:43:21.081Z,272.90
2018-11-21T12:46:14.785Z,249.07
2018-11-21T12:49:02.959Z,261.97
2018-11-21T12:52:06.096Z,239.10
2018-11-21T12:55:03.525Z,257.97
2018-11-21T12:57:54.394Z,237.23
2018-11-21T13:00:41.351Z,264.63
2018-11-21T13:03:29.536Z,257.53
2018-11-21T13:06:16.479Z,266.70
2018-11-21T13:09:08.350Z,272.03
2018-11-21T13:11:55.271Z,257.53
2018-11-21T13:14:55.602Z,270.03
2018-11-21T13:17:46.357Z,278.57
2018-11-21T13:20:40.219Z,246.53
2018-11-21T13:23:37.645Z,237.33
2018-11-21T13:26:31.730Z,252.37
2018-11-21T13:29:19.881Z,274.87
2018-11-21T13:32:10.019Z,266.17
2018-11-21T13:34:58.162Z,271.57
2018-11-21T13:37:45.198Z,244.87
2018-11-21T13:40:33.294Z,277.37
2018-11-21T13:43:23.504Z,280.00
2018-11-21T13:46:17.811Z,285.80
2018-11-21T13:49:05.632Z,274.97
2018-11-21T13:52:12.905Z,269.10
2018-11-21T13:55:00.303Z,243.47
2018-11-21T13:57:32.649Z,238.50
2018-11-21T14:00:02.945Z,267.17
2018-11-21T14:02:32.625Z,294.10
2018-11-21T14:05:02.401Z,281.13
2018-11-21T14:07:31.420Z,280.23
2018-11-21T14:10:00.406Z,279.87
2018-11-21T14:12:30.382Z,285.03
2018-11-21T14:14:59.383Z,290.07
2018-11-21T14:17:28.414Z,272.73
2018-11-21T14:19:57.421Z,266.40
2018-11-21T14:22:26.431Z,284.23
2018-11-21T14:24:55.469Z,278.23
2018-11-21T14:27:24.467Z,289.60
2018-11-21T14:29:53.410Z,294.30
2018-11-21T14:32:22.433Z,289.37
2018-11-21T14:34:51.417Z,304.93
2018-11-21T14:37:20.383Z,294.10
2018-11-21T14:39:49.384Z,288.13
2018-11-21T14:42:20.128Z,307.00
2018-11-21T14:44:47.310Z,302.67
2018-11-21T14:47:17.004Z,300.27
2018-11-21T14:49:49.591Z,300.73
2018-11-21T14:52:18.541Z,306.10
2018-11-21T14:54:47.517Z,311.03
2018-11-21T14:57:16.563Z,316.23
2018-11-21T14:59:45.579Z,300.83
2018-11-21T15:02:14.594Z,283.03
2018-11-21T15:04:43.554Z,296.60
2018-11-21T15:07:12.938Z,280.83
2018-11-21T15:09:41.980Z,276.50
2018-11-21T15:12:11.373Z,266.97
2018-11-21T15:14:40.352Z,275.43
2018-11-21T15:17:09.447Z,268.50
2018-11-21T15:19:38.392Z,222.00
2018-11-21T15:22:07.384Z,307.20
2018-11-21T15:24:36.375Z,275.40
2018-11-21T15:27:05.499Z,274.53
2018-11-21T15:29:34.571Z,286.23
2018-11-21T15:32:03.603Z,291.40
2018-11-21T15:34:32.652Z,266.07
2018-11-21T15:37:01.911Z,255.30
2018-11-21T15:39:30.923Z,267.07
2018-11-21T15:42:00.071Z,271.57
2018-11-21T15:44:29.084Z,273.30
2018-11-21T15:46:58.156Z,236.73
2018-11-21T15:49:27.255Z,268.73
2018-11-21T15:52:01.295Z,245.67
2018-11-21T15:54:25.498Z,236.07
2018-11-21T15:56:54.556Z,227.23
2018-11-21T15:59:29.425Z,218.77
2018-11-21T16:01:55.787Z,209.57
2018-11-21T16:04:24.759Z,205.67
2018-11-21T16:06:53.859Z,208.33
2018-11-21T16:09:24.917Z,238.00
2018-11-21T16:11:52.078Z,249.53
2018-11-21T16:14:21.132Z,271.47
2018-11-21T16:16:50.137Z,306.80
2018-11-21T16:19:19.156Z,293.10
2018-11-21T16:21:48.151Z,321.03
2018-11-21T16:24:17.168Z,326.27
2018-11-21T16:26:46.159Z,319.03
2018-11-21T16:29:15.139Z,343.63
2018-11-21T16:31:44.104Z,348.13
2018-11-21T16:34:13.111Z,360.17
2018-11-21T16:36:42.143Z,357.43
2018-11-21T16:39:12.282Z,360.57
2018-11-21T16:41:41.246Z,344.03
2018-11-21T16:44:10.424Z,349.40
2018-11-21T16:46:39.428Z,337.97
2018-11-21T16:49:08.526Z,316.47
2018-11-21T16:51:37.653Z,316.70
2018-11-21T16:54:06.822Z,322.67
2018-11-21T16:56:35.804Z,328.73
2018-11-21T16:59:05.022Z,326.47
2018-11-21T17:01:34.047Z,320.07
2018-11-21T17:04:03.051Z,328.33
2018-11-21T17:06:32.016Z,309.07
2018-11-21T17:09:01.072Z,322.17
2018-11-21T17:11:30.025Z,325.73
2018-11-21T17:13:59.034Z,321.93
2018-11-21T17:16:28.042Z,308.73
2018-11-21T17:18:57.038Z,329.77
2018-11-21T17:21:26.042Z,339.13
2018-11-21T17:23:54.977Z,317.97
2018-11-21T17:26:23.986Z,319.37
2018-11-21T17:28:52.950Z,308.30
2018-11-21T17:31:22.367Z,330.27
2018-11-21T17:33:52.239Z,330.00
2018-11-21T17:36:20.639Z,327.67
2018-11-21T17:38:49.638Z,335.07
2018-11-21T17:41:18.654Z,324.73
2018-11-21T17:43:47.601Z,348.10
2018-11-21T17:46:16.554Z,326.70
2018-11-21T17:48:45.635Z,344.37
2018-11-21T17:51:14.653Z,351.20
2018-11-21T17:53:43.612Z,375.23
2018-11-21T17:56:12.660Z,406.57
2018-11-21T17:58:41.644Z,411.63
2018-11-21T18:01:10.679Z,418.93
2018-11-21T18:03:39.595Z,410.03
2018-11-21T18:06:08.602Z,377.83
2018-11-21T18:08:37.610Z,376.97
2018-11-21T18:11:06.832Z,372.10
2018-11-21T18:13:35.832Z,348.63
2018-11-21T18:16:04.903Z,355.87
2018-11-21T18:18:33.918Z,351.20
2018-11-21T18:21:02.973Z,348.90
2018-11-21T18:23:31.997Z,356.10
2018-11-21T18:26:01.034Z,341.90
2018-11-21T18:28:29.975Z,349.13
2018-11-21T18:30:58.968Z,335.87
2018-11-21T18:33:27.916Z,348.60
2018-11-21T18:35:56.956Z,350.27
2018-11-21T18:38:26.065Z,327.83
2018-11-21T18:40:55.098Z,337.97
2018-11-21T18:43:24.105Z,326.90
2018-11-21T18:45:53.364Z,323.27
2018-11-21T18:48:22.376Z,326.80
2018-11-21T18:50:51.356Z,302.70
2018-11-21T18:53:20.351Z,308.83
2018-11-21T18:55:59.326Z,311.90
2018-11-21T18:58:35.235Z,298.63
2018-11-21T19:01:04.580Z,300.13
2018-11-21T19:03:34.784Z,290.63
2018-11-21T19:06:03.768Z,290.80
2018-11-21T19:08:35.799Z,292.60
2018-11-21T19:11:02.499Z,276.50
2018-11-21T19:13:33.227Z,290.27
2018-11-21T19:16:02.197Z,283.33
2018-11-21T19:18:37.939Z,272.03
2018-11-21T19:21:21.927Z,286.00
2018-11-21T19:23:51.188Z,291.03
2018-11-21T19:26:20.427Z,277.23
2018-11-21T19:28:49.731Z,283.33
2018-11-21T19:31:18.936Z,280.00
2018-11-21T19:33:48.180Z,281.97
2018-11-21T19:36:17.320Z,295.80
2018-11-21T19:38:46.982Z,281.80
2018-11-21T19:41:16.757Z,275.20
2018-11-21T19:43:46.210Z,286.50
2018-11-21T19:46:15.429Z,289.27
2018-11-21T19:48:44.572Z,282.77
2018-11-21T19:51:13.870Z,294.93
2018-11-21T19:53:42.996Z,273.57
2018-11-21T19:56:12.332Z,272.30
2018-11-21T19:58:41.564Z,286.17
2018-11-21T20:01:10.878Z,265.57
2018-11-21T20:03:40.014Z,275.87
2018-11-21T20:06:09.324Z,269.27
2018-11-21T20:08:38.530Z,279.47
2018-11-21T20:11:07.895Z,269.47
2018-11-21T20:13:37.097Z,265.43
2018-11-21T20:16:06.183Z,275.13
2018-11-21T20:18:35.593Z,273.47
2018-11-21T20:21:04.850Z,259.87
2018-11-21T20:23:34.057Z,265.37
2018-11-21T20:26:03.227Z,255.10
2018-11-21T20:28:32.457Z,254.13
2018-11-21T20:31:02.158Z,257.13
2018-11-21T20:33:31.559Z,259.43
2018-11-21T20:36:02.239Z,255.67
2018-11-21T20:38:31.614Z,259.20
2018-11-21T20:41:00.983Z,280.23
2018-11-21T20:43:30.063Z,293.17
2018-11-21T20:45:59.311Z,303.30
2018-11-21T20:48:28.551Z,327.00
2018-11-21T20:50:57.734Z,321.57
2018-11-21T20:53:26.728Z,326.73
2018-11-21T20:55:56.437Z,333.83
2018-11-21T20:58:25.539Z,320.97
2018-11-21T21:00:54.644Z,339.67
2018-11-21T21:03:23.921Z,354.57
2018-11-21T21:05:52.894Z,333.83
2018-11-21T21:08:21.895Z,351.57
2018-11-21T21:10:50.829Z,353.17
2018-11-21T21:13:20.091Z,359.13
2018-11-21T21:15:50.775Z,387.80
2018-11-21T21:18:18.195Z,396.87
2018-11-21T21:20:47.190Z,394.30
2018-11-21T21:23:16.150Z,384.07
2018-11-21T21:25:45.185Z,412.90
2018-11-21T21:28:14.212Z,402.77
2018-11-21T21:30:43.214Z,414.07
2018-11-21T21:33:12.211Z,434.57
2018-11-21T21:35:41.214Z,435.13
2018-11-21T21:38:10.182Z,431.83
2018-11-21T21:40:39.198Z,415.80
2018-11-21T21:43:08.204Z,429.47
2018-11-21T21:45:37.237Z,440.93
2018-11-21T21:48:06.477Z,440.03
2018-11-21T21:50:35.789Z,448.37
2018-11-21T21:53:04.810Z,433.60
2018-11-21T21:55:33.912Z,446.27
2018-11-21T21:58:03.134Z,442.70
2018-11-21T22:00:32.122Z,432.93
2018-11-21T22:03:01.779Z,435.03
2018-11-21T22:05:31.769Z,424.67
2018-11-21T22:08:00.839Z,425.97
2018-11-21T22:10:29.888Z,407.77
2018-11-21T22:12:58.938Z,424.97
2018-11-21T22:15:35.658Z,402.30
2018-11-21T22:18:14.903Z,400.10
2018-11-21T22:20:41.402Z,360.80
2018-11-21T22:23:10.784Z,389.87
2018-11-21T22:25:40.038Z,379.90
2018-11-21T22:28:09.294Z,373.70
2018-11-21T22:30:38.404Z,379.20
2018-11-21T22:33:09.749Z,382.33
2018-11-21T22:35:39.829Z,373.17
2018-11-21T22:38:08.857Z,392.40
2018-11-21T22:40:37.815Z,376.03
2018-11-21T22:43:06.925Z,423.60
2018-11-21T22:45:35.956Z,376.20
2018-11-21T22:48:05.085Z,383.53
2018-11-21T22:50:34.137Z,368.00
2018-11-21T22:53:05.634Z,351.10
2018-11-21T22:55:32.237Z,359.83
2018-11-21T22:58:02.375Z,368.17
2018-11-21T23:00:46.626Z,364.77
2018-11-21T23:03:17.578Z,341.00
2018-11-21T23:05:46.553Z,348.03
2018-11-21T23:08:15.580Z,356.40
2018-11-21T23:10:44.600Z,356.27
2018-11-21T23:13:13.652Z,352.40
2018-11-21T23:15:42.689Z,370.33
2018-11-21T23:18:11.899Z,385.20
2018-11-21T23:20:44.729Z,353.20
2018-11-21T23:23:14.262Z,363.07
2018-11-21T23:25:43.316Z,396.03
2018-11-21T23:28:12.262Z,365.63
2018-11-21T23:30:45.160Z,373.23
2018-11-21T23:33:11.589Z,369.37
2018-11-21T23:35:40.625Z,354.63
2018-11-21T23:38:11.380Z,350.77
2018-11-21T23:40:40.860Z,360.40
2018-11-21T23:43:13.139Z,345.73
2018-11-21T23:45:42.199Z,339.03
2018-11-21T23:48:11.384Z,350.97
2018-11-21T23:50:40.449Z,350.57
2018-11-21T23:53:10.267Z,367.50
2018-11-21T23:55:39.360Z,351.97
2018-11-21T23:58:08.418Z,333.20
